createdAt,value
2023-03-26T08:27:18.775Z,22.20
2023-03-26T08:30:13.658Z,22.20
2023-03-26T08:33:00.205Z,22.22
2023-03-26T08:35:45.830Z,22.22
2023-03-26T08:38:30.917Z,22.24
2023-03-26T08:41:19.402Z,22.22
2023-03-26T08:44:22.306Z,22.22
2023-03-26T08:47:19.953Z,22.24
2023-03-26T08:50:23.422Z,22.24
2023-03-26T08:53:02.060Z,22.24
2023-03-26T08:55:35.065Z,22.24
2023-03-26T08:58:02.833Z,22.26
2023-03-26T09:00:37.639Z,22.27
2023-03-26T09:03:07.877Z,22.27
2023-03-26T09:05:53.183Z,22.28
2023-03-26T09:08:22.518Z,22.30
2023-03-26T09:11:07.482Z,22.32
2023-03-26T09:13:52.770Z,22.34
2023-03-26T09:16:22.194Z,22.35
2023-03-26T09:19:07.302Z,22.34
2023-03-26T09:21:40.340Z,22.35
2023-03-26T09:24:10.966Z,22.32
2023-03-26T09:26:56.212Z,22.30
2023-03-26T09:29:25.601Z,22.29
2023-03-26T09:32:10.990Z,22.30
2023-03-26T09:34:58.285Z,22.30
2023-03-26T10:15:54.313Z,22.42
2023-03-26T10:18:27.901Z,22.42
2023-03-26T10:20:59.174Z,22.46
2023-03-26T10:23:41.586Z,22.47
2023-03-26T10:26:11.235Z,22.51
2023-03-26T10:28:42.175Z,22.55
2023-03-26T10:31:24.937Z,22.58
2023-03-26T10:33:52.350Z,22.60
2023-03-26T10:36:26.735Z,22.63
2023-03-26T10:39:03.152Z,22.67
2023-03-26T10:41:59.813Z,22.71
2023-03-26T10:44:43.358Z,22.75
2023-03-26T10:47:23.730Z,22.78
2023-03-26T10:50:08.768Z,22.81
2023-03-26T10:52:37.974Z,22.84
2023-03-26T10:55:04.584Z,22.88
2023-03-26T10:57:36.357Z,22.91
2023-03-26T11:00:13.339Z,22.95
2023-03-26T11:02:43.306Z,22.98
2023-03-26T11:05:16.093Z,23.01
2023-03-26T11:07:44.532Z,23.05
2023-03-26T11:10:17.163Z,23.08
2023-03-26T11:12:44.899Z,23.13
2023-03-26T11:15:20.229Z,23.17
2023-03-26T11:17:59.198Z,23.20
2023-03-26T11:20:41.142Z,23.29
2023-03-26T11:23:07.638Z,23.36
2023-03-26T11:25:36.917Z,23.41
2023-03-26T11:28:21.877Z,23.45
2023-03-26T11:30:49.250Z,23.54
2023-03-26T11:33:19.876Z,23.55
2023-03-26T11:35:47.625Z,23.55
2023-03-26T11:38:19.543Z,23.57
2023-03-26T11:40:50.556Z,23.61
2023-03-26T11:43:29.079Z,23.68
2023-03-26T11:45:55.869Z,23.72
2023-03-26T11:48:27.664Z,23.77
2023-03-26T11:51:11.582Z,23.83
2023-03-26T11:53:40.459Z,23.84
2023-03-26T11:56:16.055Z,23.84
2023-03-26T11:58:52.800Z,23.84
2023-03-26T12:01:22.741Z,23.86
2023-03-26T12:04:18.794Z,23.91
2023-03-26T12:06:57.498Z,23.98
2023-03-26T12:09:24.321Z,24.00
2023-03-26T12:11:52.220Z,24.05
2023-03-26T12:14:19.703Z,24.12
2023-03-26T12:17:01.723Z,24.17
2023-03-26T12:19:33.652Z,24.24
2023-03-26T12:22:00.253Z,24.28
2023-03-26T12:24:29.301Z,24.26
2023-03-26T12:27:06.921Z,24.27
2023-03-26T12:29:34.468Z,24.26
2023-03-26T12:32:06.019Z,24.23
2023-03-26T12:34:36.428Z,24.21
2023-03-26T12:37:04.069Z,24.17
2023-03-26T12:40:07.999Z,24.15
2023-03-26T12:44:46.498Z,24.15
2023-03-26T12:45:13.267Z,24.15
2023-03-26T12:47:57.927Z,24.15
2023-03-26T12:50:34.258Z,24.16
2023-03-26T12:53:14.809Z,24.17
2023-03-26T12:56:01.334Z,24.19
2023-03-26T12:58:39.505Z,24.19
2023-03-26T13:01:06.556Z,24.19
2023-03-26T13:03:44.243Z,24.20
2023-03-26T13:07:01.430Z,24.19
2023-03-26T13:09:46.955Z,24.21
2023-03-26T13:12:32.013Z,24.22
2023-03-26T13:15:02.213Z,24.24
2023-03-26T13:17:50.766Z,24.25
2023-03-26T13:20:24.697Z,24.26
2023-03-26T13:22:55.313Z,24.26
2023-03-26T13:25:36.855Z,24.27
2023-03-26T13:28:03.319Z,24.29
2023-03-26T13:30:48.219Z,24.30
2023-03-26T13:33:14.711Z,24.31
2023-03-26T13:35:48.993Z,24.30
2023-03-26T13:38:20.401Z,24.31
2023-03-26T13:40:49.442Z,24.33
2023-03-26T13:43:22.088Z,24.34
2023-03-26T13:45:48.626Z,24.35
2023-03-26T13:48:19.495Z,24.35
2023-03-26T13:50:49.812Z,24.44
2023-03-26T13:53:43.454Z,24.55
2023-03-26T13:56:10.919Z,24.59
2023-03-26T13:58:39.000Z,24.46
2023-03-26T14:10:18.930Z,24.48
2023-03-26T14:12:52.479Z,24.43
2023-03-26T14:15:29.994Z,24.37
2023-03-26T14:18:01.339Z,24.33
2023-03-26T14:20:41.349Z,24.30
2023-03-26T14:23:31.202Z,24.29
2023-03-26T14:26:06.852Z,24.24
2023-03-26T14:28:52.061Z,24.23
2023-03-26T14:31:19.552Z,24.20
2023-03-26T14:34:02.681Z,24.17
2023-03-26T14:36:34.959Z,24.15
2023-03-26T14:39:11.449Z,24.10
2023-03-26T14:41:50.511Z,24.09
2023-03-26T14:44:48.577Z,24.08
2023-03-26T14:47:19.641Z,24.07
2023-03-26T14:49:53.480Z,24.04
2023-03-26T14:52:20.349Z,24.00
2023-03-26T14:54:47.690Z,23.99
2023-03-26T14:57:21.518Z,23.99
2023-03-26T14:59:56.544Z,24.00
2023-03-26T15:02:38.254Z,23.98
2023-03-26T15:05:23.702Z,23.97
2023-03-26T15:08:12.576Z,23.93
2023-03-26T15:10:42.106Z,23.98
2023-03-26T15:13:20.386Z,24.09
2023-03-26T15:15:54.035Z,24.20
2023-03-26T15:21:04.526Z,24.18
2023-03-26T15:23:38.419Z,24.15
2023-03-26T15:26:09.801Z,24.11
2023-03-26T15:28:55.245Z,24.07
2023-03-26T15:31:24.612Z,24.04
2023-03-26T15:33:54.030Z,24.01
2023-03-26T15:36:28.221Z,23.98
2023-03-26T15:39:18.201Z,23.96
2023-03-26T15:41:59.948Z,23.93
2023-03-26T15:44:40.964Z,23.91
2023-03-26T15:47:37.997Z,23.92
2023-03-26T15:50:08.218Z,23.91
2023-03-26T15:52:53.690Z,23.90
2023-03-26T15:55:31.106Z,23.90
2023-03-26T15:57:57.898Z,23.92
2023-03-26T16:00:43.739Z,23.93
2023-03-26T16:03:10.288Z,23.92
2023-03-26T16:05:47.466Z,23.90
2023-03-26T16:08:26.718Z,23.87
2023-03-26T16:11:00.030Z,23.83
2023-03-26T16:13:35.000Z,23.82
2023-03-26T16:16:04.615Z,23.76
2023-03-26T16:18:35.942Z,23.70
2023-03-26T16:21:31.163Z,23.68
2023-03-26T16:24:02.117Z,23.65
2023-03-26T16:26:31.595Z,23.60
2023-03-26T16:29:18.379Z,23.56
2023-03-26T16:32:03.858Z,23.54
2023-03-26T16:34:50.690Z,23.54
2023-03-26T16:37:36.455Z,23.57
2023-03-26T16:40:22.549Z,23.59
2023-03-26T16:43:09.499Z,23.60
2023-03-26T16:45:38.124Z,23.63
2023-03-26T16:48:20.940Z,23.64
2023-03-26T16:50:57.826Z,23.65
2023-03-26T16:53:43.385Z,23.66
2023-03-26T16:56:17.788Z,23.65
2023-03-26T16:58:47.932Z,23.64
2023-03-26T17:01:21.343Z,23.61
2023-03-26T17:03:53.135Z,23.60
2023-03-26T17:06:28.840Z,23.59
2023-03-26T17:09:13.958Z,23.59
2023-03-26T17:11:44.107Z,23.57
2023-03-26T17:14:18.169Z,23.57
2023-03-26T17:16:46.052Z,23.57
2023-03-26T17:19:33.871Z,23.55
2023-03-26T17:22:03.796Z,23.54
2023-03-26T17:24:47.822Z,23.54
2023-03-26T17:27:47.080Z,23.54
2023-03-26T17:30:22.958Z,23.54
2023-03-26T17:32:54.188Z,23.53
2023-03-26T17:35:39.502Z,23.53
2023-03-26T17:38:18.033Z,23.51
2023-03-26T17:40:46.484Z,23.49
2023-03-26T17:43:14.268Z,23.48
2023-03-26T17:45:41.986Z,23.48
2023-03-26T17:48:10.466Z,23.45
2023-03-26T17:50:54.255Z,23.43
2023-03-26T17:53:23.599Z,23.42
2023-03-26T17:55:51.273Z,23.42
2023-03-26T17:58:28.573Z,23.40
2023-03-26T18:01:02.047Z,23.40
2023-03-26T18:03:36.016Z,23.39
2023-03-26T18:06:07.070Z,23.39
2023-03-26T18:08:52.265Z,23.37
2023-03-26T18:11:28.092Z,23.36
2023-03-26T18:13:54.736Z,23.35
2023-03-26T18:16:26.521Z,23.35
2023-03-26T18:19:02.844Z,23.34
2023-03-26T18:21:39.402Z,23.32
2023-03-26T18:24:06.914Z,23.31
2023-03-26T18:26:36.679Z,23.31
2023-03-26T18:29:11.759Z,23.30
2023-03-26T18:31:48.175Z,23.30
2023-03-26T18:34:21.278Z,23.28
2023-03-26T18:36:57.869Z,23.26
2023-03-26T18:39:24.436Z,23.26
2023-03-26T18:41:50.905Z,23.25
2023-03-26T18:44:17.927Z,23.25
2023-03-26T18:46:44.576Z,23.24
2023-03-26T18:49:14.671Z,23.23
2023-03-26T18:51:55.943Z,23.23
2023-03-26T18:54:29.291Z,23.20
2023-03-26T18:56:56.163Z,23.21
2023-03-26T18:59:30.808Z,23.20
2023-03-26T19:02:04.170Z,23.18
2023-03-26T19:04:33.002Z,23.18
2023-03-26T19:07:00.244Z,23.18
2023-03-26T19:09:32.152Z,23.17
2023-03-26T19:12:11.530Z,23.17
2023-03-26T19:14:50.976Z,23.15
2023-03-26T19:17:17.684Z,23.15
2023-03-26T19:19:44.267Z,23.14
2023-03-26T19:22:11.403Z,23.13
2023-03-26T19:24:38.288Z,23.12
2023-03-26T19:27:12.609Z,23.12
2023-03-26T19:29:39.366Z,23.10
2023-03-26T19:32:16.385Z,23.10
2023-03-26T19:34:43.371Z,23.08
2023-03-26T19:37:21.277Z,23.07
2023-03-26T19:39:55.480Z,23.06
2023-03-26T19:42:26.769Z,23.05
2023-03-26T19:44:53.545Z,23.04
2023-03-26T19:47:20.185Z,23.03
2023-03-26T19:49:53.088Z,23.02
2023-03-26T19:52:38.336Z,23.02
2023-03-26T19:55:10.058Z,23.03
2023-03-26T19:57:37.877Z,23.02
2023-03-26T20:00:14.940Z,23.00
2023-03-26T20:02:42.341Z,22.96
2023-03-26T20:05:25.327Z,22.94
2023-03-26T20:07:52.104Z,22.91
2023-03-26T20:10:18.697Z,22.88
2023-03-26T20:12:45.639Z,22.94
2023-03-26T20:15:22.399Z,23.02
2023-03-26T20:17:57.912Z,23.12
2023-03-26T20:20:25.069Z,23.19
2023-03-26T20:22:55.767Z,23.25
2023-03-26T20:25:49.768Z,23.30
2023-03-26T20:28:19.008Z,23.35
2023-03-26T20:30:49.197Z,23.40
2023-03-26T20:33:20.656Z,23.43
2023-03-26T20:35:50.341Z,23.48
2023-03-26T20:38:17.099Z,23.50
2023-03-26T20:40:44.834Z,23.53
2023-03-26T20:43:12.279Z,23.54
2023-03-26T20:45:38.874Z,23.56
2023-03-26T20:48:05.462Z,23.59
2023-03-26T20:50:35.734Z,23.60
2023-03-26T20:53:06.109Z,23.63
2023-03-26T20:55:32.673Z,23.64
2023-03-26T20:57:59.495Z,23.66
2023-03-26T21:00:26.073Z,23.68
2023-03-26T21:02:53.725Z,23.70
2023-03-26T21:05:26.903Z,23.70
2023-03-26T21:08:01.365Z,23.70
2023-03-26T21:10:29.677Z,23.71
2023-03-26T21:12:57.213Z,23.71
2023-03-26T21:15:24.374Z,23.73
2023-03-26T21:17:54.927Z,23.74
2023-03-26T21:20:25.350Z,23.76
2023-03-26T21:23:11.544Z,23.75
2023-03-26T21:25:40.810Z,23.78
2023-03-26T21:28:09.953Z,23.76
2023-03-26T21:30:36.868Z,23.77
2023-03-26T21:33:05.204Z,23.83
2023-03-26T21:35:32.214Z,23.93
2023-03-26T21:37:59.154Z,24.01
2023-03-26T21:40:26.210Z,24.04
2023-03-26T21:42:54.197Z,24.05
2023-03-26T21:45:21.186Z,24.04
2023-03-26T21:47:47.989Z,24.03
2023-03-26T21:50:18.886Z,24.02
2023-03-26T21:52:48.493Z,24.01
2023-03-26T21:55:16.611Z,24.00
2023-03-26T21:57:48.915Z,23.98
2023-03-26T22:00:18.371Z,23.98
2023-03-26T22:02:51.145Z,23.96
2023-03-26T22:05:21.509Z,23.95
2023-03-26T22:07:52.900Z,23.94
2023-03-26T22:10:19.437Z,23.95
2023-03-26T22:12:52.996Z,23.94
2023-03-26T22:15:19.957Z,23.92
2023-03-26T22:17:57.070Z,23.92
2023-03-26T22:20:27.972Z,23.91
2023-03-26T22:22:55.783Z,23.92
2023-03-26T22:25:23.121Z,23.91
2023-03-26T22:27:49.967Z,23.90
2023-03-26T22:30:17.079Z,23.90
2023-03-26T22:32:44.673Z,23.91
2023-03-26T22:35:11.356Z,23.91
2023-03-26T22:37:37.889Z,23.90
2023-03-26T22:40:08.295Z,23.89
2023-03-26T22:42:35.201Z,23.90
2023-03-26T22:45:01.883Z,23.90
2023-03-26T22:47:30.473Z,23.89
2023-03-26T22:49:57.224Z,23.88
2023-03-26T22:52:23.758Z,23.89
2023-03-26T22:54:50.283Z,23.65
2023-03-26T22:57:42.724Z,23.88
2023-03-26T23:00:27.826Z,23.88
2023-03-26T23:02:59.958Z,23.87
2023-03-26T23:05:27.666Z,23.87
2023-03-26T23:07:54.293Z,23.88
2023-03-26T23:10:21.670Z,23.88
2023-03-26T23:12:52.514Z,23.88
2023-03-26T23:15:24.029Z,23.89
2023-03-26T23:17:55.304Z,23.89
2023-03-26T23:20:39.106Z,23.89
2023-03-26T23:23:09.152Z,23.89
2023-03-26T23:25:36.560Z,23.90
2023-03-26T23:28:13.482Z,23.90
2023-03-26T23:30:40.053Z,23.90
2023-03-26T23:33:06.670Z,23.89
2023-03-26T23:35:33.300Z,23.91
2023-03-26T23:38:02.521Z,23.90
2023-03-26T23:40:29.227Z,23.90
2023-03-26T23:42:55.672Z,23.91
2023-03-26T23:45:22.590Z,23.90
2023-03-26T23:47:49.280Z,23.90
2023-03-26T23:50:16.474Z,23.91
2023-03-26T23:52:45.717Z,23.91
2023-03-26T23:55:12.244Z,23.91
2023-03-26T23:57:43.222Z,23.91
